sensor_id;sensor_type;location;lat;lon;timestamp;temperature;humidity
72114;SHT31;59989;46.220;19.888;2023-02-12T00:00:21;3.55;60.95
72114;SHT31;59989;46.220;19.888;2023-02-12T00:03:41;3.60;61.42
72114;SHT31;59989;46.220;19.888;2023-02-12T00:07:01;3.66;62.27
72114;SHT31;59989;46.220;19.888;2023-02-12T00:10:21;3.80;62.36
72114;SHT31;59989;46.220;19.888;2023-02-12T00:13:41;3.91;62.67
72114;SHT31;59989;46.220;19.888;2023-02-12T00:17:01;4.02;62.84
72114;SHT31;59989;46.220;19.888;2023-02-12T00:20:20;3.98;63.38
72114;SHT31;59989;46.220;19.888;2023-02-12T00:23:40;4.02;63.85
72114;SHT31;59989;46.220;19.888;2023-02-12T00:27:00;4.01;64.57
72114;SHT31;59989;46.220;19.888;2023-02-12T00:30:20;4.09;64.72
72114;SHT31;59989;46.220;19.888;2023-02-12T00:33:40;4.17;65.10
72114;SHT31;59989;46.220;19.888;2023-02-12T00:37:00;4.14;65.38
72114;SHT31;59989;46.220;19.888;2023-02-12T00:40:20;4.15;65.45
72114;SHT31;59989;46.220;19.888;2023-02-12T00:43:40;4.09;65.86
72114;SHT31;59989;46.220;19.888;2023-02-12T00:47:01;4.12;66.09
72114;SHT31;59989;46.220;19.888;2023-02-12T00:50:24;4.11;66.51
72114;SHT31;59989;46.220;19.888;2023-02-12T00:53:44;4.07;66.83
72114;SHT31;59989;46.220;19.888;2023-02-12T00:57:04;4.11;66.88
72114;SHT31;59989;46.220;19.888;2023-02-12T01:00:24;4.09;67.21
72114;SHT31;59989;46.220;19.888;2023-02-12T01:03:44;4.11;67.57
72114;SHT31;59989;46.220;19.888;2023-02-12T01:07:04;4.18;67.66
72114;SHT31;59989;46.220;19.888;2023-02-12T01:10:24;4.09;68.43
72114;SHT31;59989;46.220;19.888;2023-02-12T01:13:44;4.15;68.70
72114;SHT31;59989;46.220;19.888;2023-02-12T01:17:07;4.19;69.03
72114;SHT31;59989;46.220;19.888;2023-02-12T01:20:26;4.32;68.91
72114;SHT31;59989;46.220;19.888;2023-02-12T01:23:47;4.36;69.22
72114;SHT31;59989;46.220;19.888;2023-02-12T01:27:07;4.42;69.48
72114;SHT31;59989;46.220;19.888;2023-02-12T01:30:27;4.38;69.88
72114;SHT31;59989;46.220;19.888;2023-02-12T01:33:49;4.41;69.88
72114;SHT31;59989;46.220;19.888;2023-02-12T01:37:09;4.45;70.00
72114;SHT31;59989;46.220;19.888;2023-02-12T01:40:29;4.46;70.17
72114;SHT31;59989;46.220;19.888;2023-02-12T01:44:22;4.48;70.37
72114;SHT31;59989;46.220;19.888;2023-02-12T01:47:44;4.48;70.56
72114;SHT31;59989;46.220;19.888;2023-02-12T01:51:06;4.52;70.77
72114;SHT31;59989;46.220;19.888;2023-02-12T01:54:28;4.32;71.43
72114;SHT31;59989;46.220;19.888;2023-02-12T01:57:49;4.21;72.05
72114;SHT31;59989;46.220;19.888;2023-02-12T02:01:12;3.99;72.80
72114;SHT31;59989;46.220;19.888;2023-02-12T02:04:42;3.88;73.28
72114;SHT31;59989;46.220;19.888;2023-02-12T02:08:03;3.83;73.70
72114;SHT31;59989;46.220;19.888;2023-02-12T02:11:23;3.77;74.09
72114;SHT31;59989;46.220;19.888;2023-02-12T02:15:03;3.63;74.83
72114;SHT31;59989;46.220;19.888;2023-02-12T02:22:19;3.49;75.78
72114;SHT31;59989;46.220;19.888;2023-02-12T02:36:46;3.60;76.26
72114;SHT31;59989;46.220;19.888;2023-02-12T02:40:21;3.62;76.72
72114;SHT31;59989;46.220;19.888;2023-02-12T02:43:49;3.67;76.69
72114;SHT31;59989;46.220;19.888;2023-02-12T02:47:13;3.70;77.12
72114;SHT31;59989;46.220;19.888;2023-02-12T02:50:34;3.69;77.26
72114;SHT31;59989;46.220;19.888;2023-02-12T02:54:02;3.64;77.64
72114;SHT31;59989;46.220;19.888;2023-02-12T02:57:28;3.63;77.90
72114;SHT31;59989;46.220;19.888;2023-02-12T03:01:00;3.60;78.14
72114;SHT31;59989;46.220;19.888;2023-02-12T03:04:26;3.60;78.35
72114;SHT31;59989;46.220;19.888;2023-02-12T03:07:55;3.63;78.61
72114;SHT31;59989;46.220;19.888;2023-02-12T03:11:26;3.62;78.75
72114;SHT31;59989;46.220;19.888;2023-02-12T03:14:51;3.60;79.09
72114;SHT31;59989;46.220;19.888;2023-02-12T03:18:23;3.59;79.28
72114;SHT31;59989;46.220;19.888;2023-02-12T03:21:57;3.60;79.55
72114;SHT31;59989;46.220;19.888;2023-02-12T03:25:27;3.62;79.95
72114;SHT31;59989;46.220;19.888;2023-02-12T03:28:49;3.63;79.97
72114;SHT31;59989;46.220;19.888;2023-02-12T03:32:29;3.50;80.32
72114;SHT31;59989;46.220;19.888;2023-02-12T03:36:00;3.55;80.48
72114;SHT31;59989;46.220;19.888;2023-02-12T03:43:28;3.50;80.85
72114;SHT31;59989;46.220;19.888;2023-02-12T03:47:08;3.50;80.95
72114;SHT31;59989;46.220;19.888;2023-02-12T03:50:38;3.46;81.29
72114;SHT31;59989;46.220;19.888;2023-02-12T03:54:01;3.42;81.47
72114;SHT31;59989;46.220;19.888;2023-02-12T03:57:25;3.39;81.67
72114;SHT31;59989;46.220;19.888;2023-02-12T04:00:49;3.36;81.88
72114;SHT31;59989;46.220;19.888;2023-02-12T04:04:10;3.35;82.12
72114;SHT31;59989;46.220;19.888;2023-02-12T04:07:30;3.29;82.40
72114;SHT31;59989;46.220;19.888;2023-02-12T04:11:16;3.30;82.66
72114;SHT31;59989;46.220;19.888;2023-02-12T04:15:16;3.29;82.73
72114;SHT31;59989;46.220;19.888;2023-02-12T04:18:42;3.25;83.04
72114;SHT31;59989;46.220;19.888;2023-02-12T04:22:23;3.13;83.35
72114;SHT31;59989;46.220;19.888;2023-02-12T04:29:31;2.94;84.13
72114;SHT31;59989;46.220;19.888;2023-02-12T04:33:04;2.84;84.57
72114;SHT31;59989;46.220;19.888;2023-02-12T04:36:31;2.77;84.93
72114;SHT31;59989;46.220;19.888;2023-02-12T04:39:53;2.70;85.01
72114;SHT31;59989;46.220;19.888;2023-02-12T04:43:13;2.60;85.35
72114;SHT31;59989;46.220;19.888;2023-02-12T04:46:33;2.60;85.60
72114;SHT31;59989;46.220;19.888;2023-02-12T04:49:53;2.53;85.72
72114;SHT31;59989;46.220;19.888;2023-02-12T04:53:13;2.44;85.86
72114;SHT31;59989;46.220;19.888;2023-02-12T04:56:32;2.40;86.22
72114;SHT31;59989;46.220;19.888;2023-02-12T04:59:52;2.34;86.27
72114;SHT31;59989;46.220;19.888;2023-02-12T05:03:12;2.32;86.56
72114;SHT31;59989;46.220;19.888;2023-02-12T05:06:36;2.33;86.51
72114;SHT31;59989;46.220;19.888;2023-02-12T05:09:56;2.20;86.61
72114;SHT31;59989;46.220;19.888;2023-02-12T05:13:16;2.22;86.86
72114;SHT31;59989;46.220;19.888;2023-02-12T05:16:36;2.18;86.90
72114;SHT31;59989;46.220;19.888;2023-02-12T05:19:56;2.15;86.97
72114;SHT31;59989;46.220;19.888;2023-02-12T05:23:15;2.09;87.14
72114;SHT31;59989;46.220;19.888;2023-02-12T05:26:36;2.15;87.26
72114;SHT31;59989;46.220;19.888;2023-02-12T05:29:56;2.18;87.29
72114;SHT31;59989;46.220;19.888;2023-02-12T05:33:16;2.20;87.14
72114;SHT31;59989;46.220;19.888;2023-02-12T05:36:36;2.19;87.23
72114;SHT31;59989;46.220;19.888;2023-02-12T05:39:56;2.19;87.30
72114;SHT31;59989;46.220;19.888;2023-02-12T05:43:15;2.20;87.30
72114;SHT31;59989;46.220;19.888;2023-02-12T05:46:35;2.20;87.39
72114;SHT31;59989;46.220;19.888;2023-02-12T05:49:55;2.19;87.40
72114;SHT31;59989;46.220;19.888;2023-02-12T05:53:15;2.18;87.51
72114;SHT31;59989;46.220;19.888;2023-02-12T05:56:45;2.25;87.49
72114;SHT31;59989;46.220;19.888;2023-02-12T06:00:07;2.25;87.41
72114;SHT31;59989;46.220;19.888;2023-02-12T06:03:27;2.25;87.51
72114;SHT31;59989;46.220;19.888;2023-02-12T06:06:47;2.32;87.40
72114;SHT31;59989;46.220;19.888;2023-02-12T06:10:07;2.32;87.27
72114;SHT31;59989;46.220;19.888;2023-02-12T06:13:27;2.37;87.21
72114;SHT31;59989;46.220;19.888;2023-02-12T06:16:49;2.37;87.16
72114;SHT31;59989;46.220;19.888;2023-02-12T06:20:10;2.39;87.13
72114;SHT31;59989;46.220;19.888;2023-02-12T06:23:30;2.33;87.14
72114;SHT31;59989;46.220;19.888;2023-02-12T06:26:50;2.36;87.13
72114;SHT31;59989;46.220;19.888;2023-02-12T06:30:11;2.37;87.10
72114;SHT31;59989;46.220;19.888;2023-02-12T06:33:31;2.40;87.03
72114;SHT31;59989;46.220;19.888;2023-02-12T06:36:54;2.39;87.03
72114;SHT31;59989;46.220;19.888;2023-02-12T06:40:13;2.41;87.03
72114;SHT31;59989;46.220;19.888;2023-02-12T06:43:34;2.49;86.87
72114;SHT31;59989;46.220;19.888;2023-02-12T06:46:54;2.51;86.75
72114;SHT31;59989;46.220;19.888;2023-02-12T06:50:14;2.57;86.59
72114;SHT31;59989;46.220;19.888;2023-02-12T06:53:34;2.64;86.52
72114;SHT31;59989;46.220;19.888;2023-02-12T06:56:54;2.62;86.44
72114;SHT31;59989;46.220;19.888;2023-02-12T07:00:14;2.65;86.39
72114;SHT31;59989;46.220;19.888;2023-02-12T07:03:34;2.67;86.29
72114;SHT31;59989;46.220;19.888;2023-02-12T07:06:55;2.68;86.24
72114;SHT31;59989;46.220;19.888;2023-02-12T07:10:16;2.81;86.06
72114;SHT31;59989;46.220;19.888;2023-02-12T07:13:36;2.92;85.83
72114;SHT31;59989;46.220;19.888;2023-02-12T07:16:58;2.91;85.67
72114;SHT31;59989;46.220;19.888;2023-02-12T07:20:22;2.95;85.58
72114;SHT31;59989;46.220;19.888;2023-02-12T07:23:47;3.05;85.40
72114;SHT31;59989;46.220;19.888;2023-02-12T07:27:07;3.15;85.19
72114;SHT31;59989;46.220;19.888;2023-02-12T07:30:27;3.16;85.18
72114;SHT31;59989;46.220;19.888;2023-02-12T07:33:47;3.25;85.00
72114;SHT31;59989;46.220;19.888;2023-02-12T07:37:07;3.26;84.88
72114;SHT31;59989;46.220;19.888;2023-02-12T07:40:26;3.29;84.80
72114;SHT31;59989;46.220;19.888;2023-02-12T07:43:51;3.26;84.72
72114;SHT31;59989;46.220;19.888;2023-02-12T07:47:11;3.19;84.93
72114;SHT31;59989;46.220;19.888;2023-02-12T07:50:31;3.25;85.12
72114;SHT31;59989;46.220;19.888;2023-02-12T07:53:50;3.33;84.96
72114;SHT31;59989;46.220;19.888;2023-02-12T07:57:10;3.55;84.57
72114;SHT31;59989;46.220;19.888;2023-02-12T08:00:30;3.87;83.72
72114;SHT31;59989;46.220;19.888;2023-02-12T08:03:50;4.14;82.81
72114;SHT31;59989;46.220;19.888;2023-02-12T08:07:10;4.24;82.34
72114;SHT31;59989;46.220;19.888;2023-02-12T08:10:30;4.17;82.14
72114;SHT31;59989;46.220;19.888;2023-02-12T08:13:51;4.25;81.88
72114;SHT31;59989;46.220;19.888;2023-02-12T08:17:11;4.21;81.95
72114;SHT31;59989;46.220;19.888;2023-02-12T08:20:33;4.36;81.69
72114;SHT31;59989;46.220;19.888;2023-02-12T08:23:54;4.52;81.19
72114;SHT31;59989;46.220;19.888;2023-02-12T08:27:14;4.65;80.58
72114;SHT31;59989;46.220;19.888;2023-02-12T08:30:34;4.79;79.79
72114;SHT31;59989;46.220;19.888;2023-02-12T08:33:54;4.84;79.25
72114;SHT31;59989;46.220;19.888;2023-02-12T08:37:14;4.94;79.28
72114;SHT31;59989;46.220;19.888;2023-02-12T08:40:34;5.10;79.00
72114;SHT31;59989;46.220;19.888;2023-02-12T08:43:56;5.10;78.47
72114;SHT31;59989;46.220;19.888;2023-02-12T08:47:16;5.20;77.63
72114;SHT31;59989;46.220;19.888;2023-02-12T08:50:36;5.18;76.46
72114;SHT31;59989;46.220;19.888;2023-02-12T08:54:00;5.18;76.08
72114;SHT31;59989;46.220;19.888;2023-02-12T08:57:20;5.25;75.12
72114;SHT31;59989;46.220;19.888;2023-02-12T09:00:40;5.38;75.02
72114;SHT31;59989;46.220;19.888;2023-02-12T09:04:00;5.39;74.54
72114;SHT31;59989;46.220;19.888;2023-02-12T09:07:20;5.51;74.63
72114;SHT31;59989;46.220;19.888;2023-02-12T09:10:43;5.60;74.34
72114;SHT31;59989;46.220;19.888;2023-02-12T09:14:06;5.59;74.40
72114;SHT31;59989;46.220;19.888;2023-02-12T09:17:26;5.55;74.13
72114;SHT31;59989;46.220;19.888;2023-02-12T09:20:47;5.62;73.96
72114;SHT31;59989;46.220;19.888;2023-02-12T09:24:08;5.49;74.02
72114;SHT31;59989;46.220;19.888;2023-02-12T09:27:28;5.66;73.86
72114;SHT31;59989;46.220;19.888;2023-02-12T09:30:48;5.69;74.41
72114;SHT31;59989;46.220;19.888;2023-02-12T09:34:10;5.93;74.09
72114;SHT31;59989;46.220;19.888;2023-02-12T09:37:29;5.92;73.36
72114;SHT31;59989;46.220;19.888;2023-02-12T09:44:32;6.18;72.46
72114;SHT31;59989;46.220;19.888;2023-02-12T09:48:09;6.30;71.60
72114;SHT31;59989;46.220;19.888;2023-02-12T09:51:31;6.52;70.87
72114;SHT31;59989;46.220;19.888;2023-02-12T09:54:51;6.58;70.17
72114;SHT31;59989;46.220;19.888;2023-02-12T09:58:15;6.67;69.50
72114;SHT31;59989;46.220;19.888;2023-02-12T10:01:36;7.07;68.46
72114;SHT31;59989;46.220;19.888;2023-02-12T10:04:58;7.40;67.04
72114;SHT31;59989;46.220;19.888;2023-02-12T10:16:13;8.65;62.55
72114;SHT31;59989;46.220;19.888;2023-02-12T10:19:55;9.12;60.83
72114;SHT31;59989;46.220;19.888;2023-02-12T10:24:10;9.37;59.38
72114;SHT31;59989;46.220;19.888;2023-02-12T10:27:35;8.99;60.49
72114;SHT31;59989;46.220;19.888;2023-02-12T10:30:57;8.78;60.50
72114;SHT31;59989;46.220;19.888;2023-02-12T10:34:24;8.89;61.25
72114;SHT31;59989;46.220;19.888;2023-02-12T10:37:56;9.23;60.07
72114;SHT31;59989;46.220;19.888;2023-02-12T10:41:17;9.30;59.91
72114;SHT31;59989;46.220;19.888;2023-02-12T10:44:37;9.30;59.23
72114;SHT31;59989;46.220;19.888;2023-02-12T10:48:08;8.98;60.06
72114;SHT31;59989;46.220;19.888;2023-02-12T10:54:51;8.65;60.98
72114;SHT31;59989;46.220;19.888;2023-02-12T10:58:23;8.25;62.12
72114;SHT31;59989;46.220;19.888;2023-02-12T11:01:46;7.99;63.13
72114;SHT31;59989;46.220;19.888;2023-02-12T11:05:23;8.37;62.43
72114;SHT31;59989;46.220;19.888;2023-02-12T11:08:44;8.34;61.83
72114;SHT31;59989;46.220;19.888;2023-02-12T11:15:37;8.05;62.65
72114;SHT31;59989;46.220;19.888;2023-02-12T11:19:19;7.92;63.65
72114;SHT31;59989;46.220;19.888;2023-02-12T11:22:55;7.79;64.11
72114;SHT31;59989;46.220;19.888;2023-02-12T11:29:38;7.89;64.00
72114;SHT31;59989;46.220;19.888;2023-02-12T11:33:35;7.89;63.64
72114;SHT31;59989;46.220;19.888;2023-02-12T11:36:55;8.03;63.10
72114;SHT31;59989;46.220;19.888;2023-02-12T11:40:26;8.30;62.08
72114;SHT31;59989;46.220;19.888;2023-02-12T11:43:46;8.36;62.32
72114;SHT31;59989;46.220;19.888;2023-02-12T11:47:17;8.47;61.89
72114;SHT31;59989;46.220;19.888;2023-02-12T11:50:38;8.72;61.08
72114;SHT31;59989;46.220;19.888;2023-02-12T11:54:00;8.75;60.90
72114;SHT31;59989;46.220;19.888;2023-02-12T12:01:23;8.25;62.19
72114;SHT31;59989;46.220;19.888;2023-02-12T12:04:47;8.14;62.43
72114;SHT31;59989;46.220;19.888;2023-02-12T12:08:28;8.50;61.39
72114;SHT31;59989;46.220;19.888;2023-02-12T12:12:12;9.33;59.30
72114;SHT31;59989;46.220;19.888;2023-02-12T12:15:45;9.01;60.07
72114;SHT31;59989;46.220;19.888;2023-02-12T12:19:37;8.93;60.73
72114;SHT31;59989;46.220;19.888;2023-02-12T12:23:18;8.84;60.61
72114;SHT31;59989;46.220;19.888;2023-02-12T12:26:41;9.11;59.98
72114;SHT31;59989;46.220;19.888;2023-02-12T12:30:14;9.11;60.05
72114;SHT31;59989;46.220;19.888;2023-02-12T12:52:24;9.48;57.66
72114;SHT31;59989;46.220;19.888;2023-02-12T13:10:54;9.13;57.52
72114;SHT31;59989;46.220;19.888;2023-02-12T13:29:18;10.19;54.53
72114;SHT31;59989;46.220;19.888;2023-02-12T13:32:40;10.01;54.75
72114;SHT31;59989;46.220;19.888;2023-02-12T13:36:05;10.39;54.07
72114;SHT31;59989;46.220;19.888;2023-02-12T13:39:31;10.60;53.96
72114;SHT31;59989;46.220;19.888;2023-02-12T13:46:37;10.94;52.14
72114;SHT31;59989;46.220;19.888;2023-02-12T13:50:05;10.59;53.18
72114;SHT31;59989;46.220;19.888;2023-02-12T13:54:05;10.06;54.34
72114;SHT31;59989;46.220;19.888;2023-02-12T13:57:29;9.61;55.29
72114;SHT31;59989;46.220;19.888;2023-02-12T14:04:34;9.54;54.68
72114;SHT31;59989;46.220;19.888;2023-02-12T14:08:02;9.40;54.10
72114;SHT31;59989;46.220;19.888;2023-02-12T14:11:24;9.30;53.88
72114;SHT31;59989;46.220;19.888;2023-02-12T14:14:47;9.25;53.71
72114;SHT31;59989;46.220;19.888;2023-02-12T14:18:34;9.19;54.17
72114;SHT31;59989;46.220;19.888;2023-02-12T14:21:55;9.04;54.77
72114;SHT31;59989;46.220;19.888;2023-02-12T14:28:59;8.51;56.43
72114;SHT31;59989;46.220;19.888;2023-02-12T14:43:50;7.64;59.40
72114;SHT31;59989;46.220;19.888;2023-02-12T14:50:49;7.46;60.09
72114;SHT31;59989;46.220;19.888;2023-02-12T14:54:49;7.30;60.53
72114;SHT31;59989;46.220;19.888;2023-02-12T14:58:17;7.11;61.35
72114;SHT31;59989;46.220;19.888;2023-02-12T15:01:38;7.03;61.59
72114;SHT31;59989;46.220;19.888;2023-02-12T15:05:02;7.03;61.71
72114;SHT31;59989;46.220;19.888;2023-02-12T15:08:31;7.01;61.78
72114;SHT31;59989;46.220;19.888;2023-02-12T15:12:01;7.09;61.45
72114;SHT31;59989;46.220;19.888;2023-02-12T15:15:26;7.01;61.60
72114;SHT31;59989;46.220;19.888;2023-02-12T15:22:22;6.78;62.55
72114;SHT31;59989;46.220;19.888;2023-02-12T15:25:43;6.68;63.04
72114;SHT31;59989;46.220;19.888;2023-02-12T15:29:03;6.51;63.57
72114;SHT31;59989;46.220;19.888;2023-02-12T15:32:27;6.31;64.34
72114;SHT31;59989;46.220;19.888;2023-02-12T15:35:48;6.22;64.75
72114;SHT31;59989;46.220;19.888;2023-02-12T15:39:08;6.03;65.11
72114;SHT31;59989;46.220;19.888;2023-02-12T15:45:52;5.86;65.48
72114;SHT31;59989;46.220;19.888;2023-02-12T15:49:19;5.60;66.40
72114;SHT31;59989;46.220;19.888;2023-02-12T15:52:43;5.38;66.96
72114;SHT31;59989;46.220;19.888;2023-02-12T15:56:11;5.08;67.79
72114;SHT31;59989;46.220;19.888;2023-02-12T15:59:39;4.79;68.56
72114;SHT31;59989;46.220;19.888;2023-02-12T16:02:59;4.57;69.49
72114;SHT31;59989;46.220;19.888;2023-02-12T16:06:21;4.39;69.96
72114;SHT31;59989;46.220;19.888;2023-02-12T16:09:43;4.22;70.46
72114;SHT31;59989;46.220;19.888;2023-02-12T16:13:03;4.02;71.12
72114;SHT31;59989;46.220;19.888;2023-02-12T16:16:26;3.88;71.62
72114;SHT31;59989;46.220;19.888;2023-02-12T16:23:37;3.62;72.03
72114;SHT31;59989;46.220;19.888;2023-02-12T16:27:03;3.59;72.65
72114;SHT31;59989;46.220;19.888;2023-02-12T16:30:44;3.46;72.97
72114;SHT31;59989;46.220;19.888;2023-02-12T16:34:26;3.29;73.37
72114;SHT31;59989;46.220;19.888;2023-02-12T16:38:36;3.12;73.83
72114;SHT31;59989;46.220;19.888;2023-02-12T16:41:53;2.95;74.54
72114;SHT31;59989;46.220;19.888;2023-02-12T16:48:51;2.67;75.05
72114;SHT31;59989;46.220;19.888;2023-02-12T16:52:38;2.54;75.25
72114;SHT31;59989;46.220;19.888;2023-02-12T16:56:00;2.44;75.44
72114;SHT31;59989;46.220;19.888;2023-02-12T16:59:21;2.32;75.91
72114;SHT31;59989;46.220;19.888;2023-02-12T17:02:42;2.28;75.93
72114;SHT31;59989;46.220;19.888;2023-02-12T17:06:02;2.23;76.48
72114;SHT31;59989;46.220;19.888;2023-02-12T17:09:22;2.20;76.96
72114;SHT31;59989;46.220;19.888;2023-02-12T17:12:50;2.12;77.33
72114;SHT31;59989;46.220;19.888;2023-02-12T17:16:10;2.03;77.54
72114;SHT31;59989;46.220;19.888;2023-02-12T17:19:30;1.97;77.55
72114;SHT31;59989;46.220;19.888;2023-02-12T17:22:53;1.85;77.69
72114;SHT31;59989;46.220;19.888;2023-02-12T17:26:14;1.71;77.98
72114;SHT31;59989;46.220;19.888;2023-02-12T17:29:35;1.57;78.15
72114;SHT31;59989;46.220;19.888;2023-02-12T17:32:55;1.51;78.44
72114;SHT31;59989;46.220;19.888;2023-02-12T17:36:15;1.40;78.68
72114;SHT31;59989;46.220;19.888;2023-02-12T17:39:35;1.34;79.20
72114;SHT31;59989;46.220;19.888;2023-02-12T17:42:55;1.29;79.54
72114;SHT31;59989;46.220;19.888;2023-02-12T17:46:21;1.23;79.90
72114;SHT31;59989;46.220;19.888;2023-02-12T17:49:42;1.17;79.87
72114;SHT31;59989;46.220;19.888;2023-02-12T17:53:07;1.07;80.06
72114;SHT31;59989;46.220;19.888;2023-02-12T17:56:27;0.99;80.12
72114;SHT31;59989;46.220;19.888;2023-02-12T17:59:48;0.91;80.69
72114;SHT31;59989;46.220;19.888;2023-02-12T18:03:11;0.86;81.26
72114;SHT31;59989;46.220;19.888;2023-02-12T18:06:32;0.76;81.44
72114;SHT31;59989;46.220;19.888;2023-02-12T18:09:52;0.66;81.81
72114;SHT31;59989;46.220;19.888;2023-02-12T18:13:13;0.61;82.00
72114;SHT31;59989;46.220;19.888;2023-02-12T18:16:34;0.55;82.10
72114;SHT31;59989;46.220;19.888;2023-02-12T18:19:54;0.48;82.30
72114;SHT31;59989;46.220;19.888;2023-02-12T18:23:15;0.40;82.42
72114;SHT31;59989;46.220;19.888;2023-02-12T18:26:35;0.34;82.31
72114;SHT31;59989;46.220;19.888;2023-02-12T18:29:55;0.36;82.47
72114;SHT31;59989;46.220;19.888;2023-02-12T18:33:16;0.27;82.62
72114;SHT31;59989;46.220;19.888;2023-02-12T18:36:36;0.17;83.02
72114;SHT31;59989;46.220;19.888;2023-02-12T18:39:56;0.09;83.32
72114;SHT31;59989;46.220;19.888;2023-02-12T18:43:16;0.05;83.48
72114;SHT31;59989;46.220;19.888;2023-02-12T18:46:36;-0.01;83.55
72114;SHT31;59989;46.220;19.888;2023-02-12T18:49:57;-0.07;83.51
72114;SHT31;59989;46.220;19.888;2023-02-12T18:53:17;-0.11;83.51
72114;SHT31;59989;46.220;19.888;2023-02-12T18:56:40;-0.18;83.56
72114;SHT31;59989;46.220;19.888;2023-02-12T19:00:02;-0.22;83.96
72114;SHT31;59989;46.220;19.888;2023-02-12T19:03:24;-0.25;84.39
72114;SHT31;59989;46.220;19.888;2023-02-12T19:06:47;-0.32;84.64
72114;SHT31;59989;46.220;19.888;2023-02-12T19:10:07;-0.39;84.87
72114;SHT31;59989;46.220;19.888;2023-02-12T19:13:28;-0.39;84.97
72114;SHT31;59989;46.220;19.888;2023-02-12T19:16:48;-0.45;84.90
72114;SHT31;59989;46.220;19.888;2023-02-12T19:20:09;-0.51;85.02
72114;SHT31;59989;46.220;19.888;2023-02-12T19:23:31;-0.61;85.32
72114;SHT31;59989;46.220;19.888;2023-02-12T19:26:51;-0.59;85.66
72114;SHT31;59989;46.220;19.888;2023-02-12T19:30:12;-0.63;85.99
72114;SHT31;59989;46.220;19.888;2023-02-12T19:33:32;-0.68;86.22
72114;SHT31;59989;46.220;19.888;2023-02-12T19:36:53;-0.72;86.15
72114;SHT31;59989;46.220;19.888;2023-02-12T19:40:13;-0.80;85.92
72114;SHT31;59989;46.220;19.888;2023-02-12T19:43:33;-0.86;86.00
72114;SHT31;59989;46.220;19.888;2023-02-12T19:46:54;-0.89;85.82
72114;SHT31;59989;46.220;19.888;2023-02-12T19:50:15;-0.96;85.91
72114;SHT31;59989;46.220;19.888;2023-02-12T19:53:35;-1.00;86.02
72114;SHT31;59989;46.220;19.888;2023-02-12T19:56:55;-1.05;86.03
72114;SHT31;59989;46.220;19.888;2023-02-12T20:00:16;-1.11;86.14
72114;SHT31;59989;46.220;19.888;2023-02-12T20:03:37;-1.11;86.30
72114;SHT31;59989;46.220;19.888;2023-02-12T20:06:58;-1.14;86.46
72114;SHT31;59989;46.220;19.888;2023-02-12T20:10:18;-1.17;86.52
72114;SHT31;59989;46.220;19.888;2023-02-12T20:13:39;-1.22;86.61
72114;SHT31;59989;46.220;19.888;2023-02-12T20:17:01;-1.25;86.69
72114;SHT31;59989;46.220;19.888;2023-02-12T20:20:21;-1.25;86.88
72114;SHT31;59989;46.220;19.888;2023-02-12T20:23:42;-1.30;86.85
72114;SHT31;59989;46.220;19.888;2023-02-12T20:27:02;-1.31;86.79
72114;SHT31;59989;46.220;19.888;2023-02-12T20:30:22;-1.44;87.10
72114;SHT31;59989;46.220;19.888;2023-02-12T20:33:43;-1.47;87.41
72114;SHT31;59989;46.220;19.888;2023-02-12T20:37:04;-1.49;87.35
72114;SHT31;59989;46.220;19.888;2023-02-12T20:40:25;-1.56;87.27
72114;SHT31;59989;46.220;19.888;2023-02-12T20:43:45;-1.66;87.29
72114;SHT31;59989;46.220;19.888;2023-02-12T20:47:05;-1.73;87.55
72114;SHT31;59989;46.220;19.888;2023-02-12T20:50:25;-1.79;87.46
72114;SHT31;59989;46.220;19.888;2023-02-12T20:53:45;-1.79;87.61
72114;SHT31;59989;46.220;19.888;2023-02-12T20:57:05;-1.89;87.79
72114;SHT31;59989;46.220;19.888;2023-02-12T21:00:27;-1.87;87.77
72114;SHT31;59989;46.220;19.888;2023-02-12T21:03:48;-2.03;87.74
72114;SHT31;59989;46.220;19.888;2023-02-12T21:07:10;-2.07;88.10
72114;SHT31;59989;46.220;19.888;2023-02-12T21:10:30;-2.06;88.28
72114;SHT31;59989;46.220;19.888;2023-02-12T21:13:53;-2.03;88.34
72114;SHT31;59989;46.220;19.888;2023-02-12T21:17:14;-2.00;88.29
72114;SHT31;59989;46.220;19.888;2023-02-12T21:20:34;-1.93;88.30
72114;SHT31;59989;46.220;19.888;2023-02-12T21:23:56;-1.86;88.38
72114;SHT31;59989;46.220;19.888;2023-02-12T21:27:16;-1.79;88.33
72114;SHT31;59989;46.220;19.888;2023-02-12T21:30:36;-1.82;88.23
72114;SHT31;59989;46.220;19.888;2023-02-12T21:33:58;-1.96;88.15
72114;SHT31;59989;46.220;19.888;2023-02-12T21:37:18;-2.07;88.45
72114;SHT31;59989;46.220;19.888;2023-02-12T21:40:38;-2.07;88.71
72114;SHT31;59989;46.220;19.888;2023-02-12T21:44:00;-2.04;88.82
72114;SHT31;59989;46.220;19.888;2023-02-12T21:47:20;-2.13;88.66
72114;SHT31;59989;46.220;19.888;2023-02-12T21:50:41;-2.20;88.63
72114;SHT31;59989;46.220;19.888;2023-02-12T21:54:04;-2.26;88.71
72114;SHT31;59989;46.220;19.888;2023-02-12T21:57:24;-2.20;88.70
72114;SHT31;59989;46.220;19.888;2023-02-12T22:00:44;-2.24;88.59
72114;SHT31;59989;46.220;19.888;2023-02-12T22:04:04;-2.37;88.44
72114;SHT31;59989;46.220;19.888;2023-02-12T22:07:25;-2.42;88.54
72114;SHT31;59989;46.220;19.888;2023-02-12T22:10:45;-2.42;88.82
72114;SHT31;59989;46.220;19.888;2023-02-12T22:14:06;-2.40;89.15
72114;SHT31;59989;46.220;19.888;2023-02-12T22:17:26;-2.37;89.25
72114;SHT31;59989;46.220;19.888;2023-02-12T22:20:46;-2.47;88.71
72114;SHT31;59989;46.220;19.888;2023-02-12T22:24:08;-2.66;88.71
72114;SHT31;59989;46.220;19.888;2023-02-12T22:27:32;-2.61;89.20
72114;SHT31;59989;46.220;19.888;2023-02-12T22:30:52;-2.51;89.45
72114;SHT31;59989;46.220;19.888;2023-02-12T22:34:14;-2.44;89.40
72114;SHT31;59989;46.220;19.888;2023-02-12T22:37:38;-2.45;89.37
72114;SHT31;59989;46.220;19.888;2023-02-12T22:40:58;-2.47;89.37
72114;SHT31;59989;46.220;19.888;2023-02-12T22:44:18;-2.48;89.18
72114;SHT31;59989;46.220;19.888;2023-02-12T22:47:37;-2.54;89.24
72114;SHT31;59989;46.220;19.888;2023-02-12T22:50:57;-2.59;89.27
72114;SHT31;59989;46.220;19.888;2023-02-12T22:54:18;-2.61;89.38
72114;SHT31;59989;46.220;19.888;2023-02-12T22:57:38;-2.59;89.41
72114;SHT31;59989;46.220;19.888;2023-02-12T23:01:07;-2.59;89.44
72114;SHT31;59989;46.220;19.888;2023-02-12T23:04:27;-2.64;89.42
72114;SHT31;59989;46.220;19.888;2023-02-12T23:07:47;-2.69;89.40
72114;SHT31;59989;46.220;19.888;2023-02-12T23:11:08;-2.75;89.46
72114;SHT31;59989;46.220;19.888;2023-02-12T23:14:28;-2.83;89.50
72114;SHT31;59989;46.220;19.888;2023-02-12T23:17:47;-2.79;89.77
72114;SHT31;59989;46.220;19.888;2023-02-12T23:21:07;-2.80;89.77
72114;SHT31;59989;46.220;19.888;2023-02-12T23:24:27;-3.00;89.21
72114;SHT31;59989;46.220;19.888;2023-02-12T23:27:47;-3.18;89.29
72114;SHT31;59989;46.220;19.888;2023-02-12T23:31:07;-3.21;89.76
72114;SHT31;59989;46.220;19.888;2023-02-12T23:34:26;-3.28;90.05
72114;SHT31;59989;46.220;19.888;2023-02-12T23:37:46;-3.24;90.07